createdAt,value
2022-11-12T00:08:06.718Z,40.17
2022-11-12T00:18:10.342Z,40.83
2022-11-12T00:38:13.540Z,40.08
2022-11-12T00:48:16.336Z,38.35
2022-11-12T00:58:25.525Z,36.87
2022-11-12T01:08:30.073Z,37.88
2022-11-12T01:18:32.069Z,37.22
2022-11-12T01:28:33.833Z,35.80
2022-11-12T01:38:36.521Z,39.85
2022-11-12T01:49:11.896Z,39.67
2022-11-12T01:59:33.503Z,41.95
2022-11-12T02:09:37.008Z,41.78
2022-11-12T02:19:39.659Z,42.75
2022-11-12T02:29:47.328Z,45.33
2022-11-12T02:39:48.991Z,46.30
2022-11-12T02:49:53.742Z,49.30
2022-11-12T02:59:58.522Z,48.58
2022-11-12T03:10:02.369Z,46.58
2022-11-12T03:30:07.584Z,47.90
2022-11-12T03:50:40.576Z,46.92
2022-11-12T04:00:42.489Z,45.28
2022-11-12T04:10:47.267Z,46.22
2022-11-12T04:21:07.849Z,45.83
2022-11-12T04:31:10.442Z,45.80
2022-11-12T04:41:30.735Z,47.38
2022-11-12T04:51:57.106Z,46.28
2022-11-12T05:01:59.742Z,46.47
2022-11-12T05:12:05.271Z,45.40
2022-11-12T05:22:21.936Z,45.22
2022-11-12T05:32:31.483Z,45.33
2022-11-12T05:42:33.335Z,48.45
2022-11-12T05:52:34.895Z,47.38
2022-11-12T06:02:36.569Z,46.85
2022-11-12T06:12:38.440Z,46.53
2022-11-12T06:22:40.017Z,48.50
2022-11-12T06:32:41.713Z,48.10
2022-11-12T06:42:44.002Z,46.65
2022-11-12T06:52:46.751Z,38.60
2022-11-12T07:02:48.453Z,41.03
2022-11-12T07:12:53.312Z,41.67
2022-11-12T07:23:00.584Z,36.50
2022-11-12T07:33:03.563Z,33.45
2022-11-12T07:43:12.040Z,29.83
2022-11-12T07:53:14.677Z,27.20
2022-11-12T08:03:16.434Z,27.47
2022-11-12T08:13:18.141Z,25.77
2022-11-12T08:23:19.820Z,25.83
2022-11-12T08:33:21.459Z,26.73
2022-11-12T08:43:23.151Z,25.30
2022-11-12T08:53:25.377Z,29.30
2022-11-12T09:03:33.407Z,28.63
2022-11-12T09:13:44.385Z,27.10
2022-11-12T09:23:46.590Z,28.00
2022-11-12T09:33:48.814Z,27.63
2022-11-12T09:43:53.506Z,28.97
2022-11-12T09:53:58.251Z,27.95
2022-11-12T10:04:27.989Z,29.73
2022-11-12T10:14:51.858Z,25.25
2022-11-12T10:24:55.659Z,24.88
2022-11-12T10:34:58.628Z,25.38
2022-11-12T10:45:21.475Z,25.65
2022-11-12T10:55:35.277Z,26.75
2022-11-12T11:06:08.421Z,24.52
2022-11-12T11:16:24.694Z,25.30
2022-11-12T11:26:32.621Z,24.48
2022-11-12T11:36:39.581Z,24.33
2022-11-12T11:47:07.259Z,23.75
2022-11-12T11:57:16.815Z,25.67
2022-11-12T12:07:52.432Z,16.27
2022-11-12T12:18:07.723Z,15.95
2022-11-12T12:28:39.775Z,18.98
2022-11-12T12:38:53.969Z,19.67
2022-11-12T12:49:05.148Z,19.13
2022-11-12T12:59:21.347Z,17.63
2022-11-12T13:09:25.990Z,17.52
2022-11-12T13:19:37.629Z,11.68
2022-11-12T13:29:42.361Z,7.77
2022-11-12T13:39:44.138Z,9.05
2022-11-12T13:49:48.387Z,9.30
2022-11-12T14:00:06.896Z,11.82
2022-11-12T14:10:35.289Z,12.52
2022-11-12T14:20:40.372Z,12.85
2022-11-12T14:30:46.087Z,19.65
2022-11-12T14:41:27.138Z,15.15
2022-11-12T14:51:32.249Z,17.20
2022-11-12T15:12:05.250Z,21.73
2022-11-12T15:22:16.800Z,22.60
2022-11-12T15:32:23.520Z,20.95
2022-11-12T15:42:34.005Z,21.75
2022-11-12T15:52:35.712Z,23.95
2022-11-12T16:02:37.335Z,23.83
2022-11-12T16:12:39.435Z,27.27
2022-11-12T16:22:41.228Z,28.15
2022-11-12T16:32:49.201Z,30.30
2022-11-12T16:42:50.946Z,30.83
2022-11-12T16:52:58.669Z,29.42
2022-11-12T17:03:00.449Z,33.25
2022-11-12T17:13:02.040Z,34.40
2022-11-12T17:23:03.852Z,35.22
2022-11-12T17:33:05.539Z,36.47
2022-11-12T17:43:10.073Z,39.08
2022-11-12T17:53:20.633Z,41.15
2022-11-12T18:03:28.667Z,37.92
2022-11-12T18:13:30.973Z,39.33
2022-11-12T18:23:40.571Z,38.00
2022-11-12T18:33:51.318Z,39.65
2022-11-12T18:43:56.522Z,38.33
2022-11-12T18:53:58.361Z,38.88
2022-11-12T19:04:01.540Z,40.00
2022-11-12T19:14:04.573Z,42.33
2022-11-12T19:24:07.192Z,43.22
2022-11-12T19:34:11.099Z,41.70
2022-11-12T19:44:12.857Z,40.88
2022-11-12T19:54:16.664Z,41.60
2022-11-12T20:04:24.014Z,44.03
2022-11-12T20:14:32.172Z,42.85
2022-11-12T20:24:37.181Z,41.22
2022-11-12T20:34:38.973Z,45.50
2022-11-12T20:44:41.777Z,45.40
2022-11-12T20:54:44.372Z,48.30
2022-11-12T21:04:46.058Z,49.17
2022-11-12T21:14:50.557Z,49.70
2022-11-12T21:24:56.640Z,52.08
2022-11-12T21:35:02.384Z,54.78
2022-11-12T21:45:05.765Z,59.72
2022-11-12T21:55:07.980Z,62.92
2022-11-12T22:05:09.571Z,62.50
2022-11-12T22:15:11.847Z,66.65
2022-11-12T22:25:13.625Z,69.10
2022-11-12T22:35:16.284Z,68.53
2022-11-12T22:45:18.267Z,69.53
2022-11-12T22:55:20.878Z,68.00
2022-11-12T23:05:29.743Z,70.45
2022-11-12T23:15:44.273Z,70.68
2022-11-12T23:25:49.852Z,69.85
2022-11-12T23:35:54.595Z,67.65
2022-11-12T23:45:56.200Z,69.03
2022-11-12T23:55:59.009Z,67.82
